Time;durP1;ratioP1;P1;durP2;ratioP2;P2;SDS_P1;SDS_P2;PMS_P1;PMS_P2;Temp;Humidity;BMP_temperature;BMP_pressure;BME280_temperature;BME280_humidity;BME280_pressure;Samples;Min_cycle;Max_cycle;Signal;HPM_P1;HPM_P2
2022/08/07 00:01:31;;;;;;;0.23;0.20;;;12.20;99.90;;;;;;5103625;28;20062;-88
2022/08/07 00:03:57;;;;;;;0.00;0.00;;;12.30;99.90;;;;;;5078885;28;20455;-88
2022/08/07 00:06:23;;;;;;;1.13;0.40;;;12.20;99.90;;;;;;5088348;28;20048;-87
2022/08/07 00:08:49;;;;;;;0.20;0.20;;;12.20;99.90;;;;;;5100341;28;20512;-90
2022/08/07 00:11:14;;;;;;;0.30;0.30;;;12.20;99.90;;;;;;5101883;28;20277;-88
2022/08/07 00:13:43;;;;;;;0.20;0.20;;;12.20;99.90;;;;;;5083908;28;20093;-88
2022/08/07 00:16:09;;;;;;;0.52;0.15;;;12.10;99.90;;;;;;5106234;28;20298;-87
2022/08/07 00:18:36;;;;;;;0.30;0.30;;;12.10;99.90;;;;;;5099971;28;20417;-89
2022/08/07 00:21:04;;;;;;;0.10;0.10;;;12.10;99.90;;;;;;5079197;28;20044;-87
2022/08/07 00:23:31;;;;;;;0.20;0.10;;;12.00;99.90;;;;;;5101690;28;20047;-87
2022/08/07 00:25:58;;;;;;;0.10;0.10;;;12.00;99.90;;;;;;5105497;28;20072;-87
2022/08/07 00:28:24;;;;;;;0.10;0.10;;;11.90;99.90;;;;;;5101646;28;20051;-87
2022/08/07 00:30:50;;;;;;;0.10;0.07;;;11.70;99.90;;;;;;5080405;28;20441;-87
2022/08/07 00:33:16;;;;;;;0.30;0.10;;;11.70;99.90;;;;;;5102594;28;20052;-87
2022/08/07 00:35:41;;;;;;;0.05;0.05;;;11.60;99.90;;;;;;5087990;28;20047;-87
2022/08/07 00:38:07;;;;;;;0.43;0.17;;;11.70;99.90;;;;;;5086083;28;20044;-89
2022/08/07 00:40:34;;;;;;;0.30;0.30;;;11.70;99.90;;;;;;5100900;28;20039;-87
2022/08/07 00:42:59;;;;;;;;;;;11.70;99.90;;;;;;5082282;28;20044;-87
2022/08/07 00:45:25;;;;;;;0.15;0.15;;;11.70;99.90;;;;;;5095442;28;19996;-87
2022/08/07 00:47:51;;;;;;;0.10;0.10;;;11.70;99.90;;;;;;5108267;28;20074;-87
2022/08/07 00:50:17;;;;;;;0.20;0.10;;;11.70;99.90;;;;;;5098097;28;20339;-88
2022/08/07 00:52:43;;;;;;;0.87;0.30;;;11.70;99.90;;;;;;5100054;28;20035;-87
2022/08/07 00:55:09;;;;;;;;;;;11.70;99.90;;;;;;5103662;28;20066;-87
2022/08/07 00:57:35;;;;;;;0.15;0.10;;;11.60;99.90;;;;;;5086517;28;20358;-87
2022/08/07 01:00:04;;;;;;;0.28;0.17;;;11.60;99.90;;;;;;5096908;28;20059;-89
2022/08/07 01:02:29;;;;;;;0.68;0.20;;;11.70;99.90;;;;;;5105513;28;20078;-88
2022/08/07 01:04:56;;;;;;;0.17;0.17;;;11.40;99.90;;;;;;5081080;28;20078;-88
2022/08/07 01:07:22;;;;;;;;;;;11.40;99.90;;;;;;5110402;28;20035;-87
2022/08/07 01:09:48;;;;;;;0.13;0.05;;;11.40;99.90;;;;;;5103564;28;19968;-88
2022/08/07 01:12:16;;;;;;;0.10;0.10;;;11.40;99.90;;;;;;5087498;28;20040;-87
2022/08/07 01:14:43;;;;;;;0.30;0.30;;;11.30;99.90;;;;;;5099730;28;20036;-87
2022/08/07 01:17:10;;;;;;;0.17;0.17;;;11.30;99.90;;;;;;5105690;28;20052;-88
2022/08/07 01:19:36;;;;;;;0.20;0.20;;;11.30;99.90;;;;;;5107302;28;20389;-87
2022/08/07 01:22:02;;;;;;;0.20;0.20;;;11.30;99.90;;;;;;5110998;28;20126;-88
2022/08/07 01:24:29;;;;;;;0.10;0.10;;;11.20;99.90;;;;;;5085004;28;20048;-87
2022/08/07 01:26:54;;;;;;;0.20;0.17;;;11.20;99.90;;;;;;5103514;28;20386;-87
2022/08/07 01:29:25;;;;;;;1.10;0.20;;;11.20;99.90;;;;;;5110339;28;20035;-87
2022/08/07 01:31:51;;;;;;;0.10;0.10;;;11.20;99.90;;;;;;5106518;28;20050;-87
2022/08/07 01:34:17;;;;;;;0.30;0.30;;;11.10;99.90;;;;;;5084427;28;20421;-88
2022/08/07 01:36:44;;;;;;;0.47;0.30;;;11.10;99.90;;;;;;5102530;28;20093;-87
2022/08/07 01:39:11;;;;;;;0.20;0.20;;;11.00;99.90;;;;;;5104028;28;20054;-87
2022/08/07 01:41:38;;;;;;;0.50;0.20;;;11.00;99.90;;;;;;5082109;28;20044;-87
2022/08/07 01:44:04;;;;;;;0.43;0.43;;;11.00;99.90;;;;;;5112700;28;20138;-92
2022/08/07 01:46:30;;;;;;;0.20;0.20;;;10.90;99.90;;;;;;5080479;28;20054;-87
2022/08/07 01:48:56;;;;;;;0.65;0.30;;;10.90;99.90;;;;;;5110351;28;20039;-87
2022/08/07 01:51:24;;;;;;;0.00;0.00;;;10.90;99.90;;;;;;5102892;28;20095;-87
2022/08/07 01:53:58;;;;;;;0.40;0.38;;;10.90;99.90;;;;;;5103738;28;20059;-87
2022/08/07 01:56:40;;;;;;;0.10;0.10;;;10.90;99.90;;;;;;5105227;28;20044;-88
2022/08/07 01:59:16;;;;;;;0.10;0.10;;;10.90;99.90;;;;;;5103172;28;20043;-91
2022/08/07 02:01:47;;;;;;;1.40;0.28;;;10.90;99.90;;;;;;5086124;28;20126;-87
2022/08/07 02:04:21;;;;;;;0.57;0.13;;;10.90;99.90;;;;;;5103550;28;20079;-88
2022/08/07 02:06:46;;;;;;;0.10;0.10;;;10.90;99.90;;;;;;5110799;28;20063;-87
2022/08/07 02:09:16;;;;;;;1.73;0.30;;;10.90;99.90;;;;;;5085928;28;20059;-87
2022/08/07 02:11:44;;;;;;;0.30;0.13;;;10.90;99.90;;;;;;5105408;28;20516;-88
2022/08/07 02:14:11;;;;;;;0.32;0.32;;;10.90;99.90;;;;;;5101751;28;20390;-88
2022/08/07 02:16:38;;;;;;;0.52;0.17;;;10.80;99.90;;;;;;5083665;28;20177;-90
2022/08/07 02:19:06;;;;;;;;;;;10.90;99.90;;;;;;5104470;28;20051;-89
2022/08/07 02:21:34;;;;;;;0.30;0.20;;;10.80;99.90;;;;;;5102379;28;20374;-87
2022/08/07 02:24:00;;;;;;;0.10;0.10;;;10.80;99.90;;;;;;5083805;28;20126;-87
2022/08/07 02:26:27;;;;;;;0.52;0.40;;;10.80;99.90;;;;;;5084256;28;20050;-87
2022/08/07 02:28:54;;;;;;;0.43;0.43;;;10.80;99.90;;;;;;5088201;28;20385;-88
2022/08/07 02:31:22;;;;;;;0.68;0.10;;;11.40;99.90;;;;;;5095309;28;20052;-87
2022/08/07 02:33:48;;;;;;;0.40;0.10;;;10.80;99.90;;;;;;5105146;28;20075;-87
2022/08/07 02:36:15;;;;;;;;;;;10.70;99.90;;;;;;5102321;28;20421;-89
2022/08/07 02:38:41;;;;;;;0.20;0.20;;;10.70;99.90;;;;;;5099965;28;19927;-87
2022/08/07 02:41:07;;;;;;;0.13;0.13;;;10.70;99.90;;;;;;5099210;28;20048;-87
2022/08/07 02:43:35;;;;;;;0.00;0.00;;;10.60;99.90;;;;;;5094562;28;20039;-87
2022/08/07 02:46:03;;;;;;;0.00;0.00;;;10.60;99.90;;;;;;5101267;28;20285;-89
2022/08/07 02:48:29;;;;;;;0.35;0.20;;;10.60;99.90;;;;;;5103418;28;20031;-87
2022/08/07 02:50:58;;;;;;;0.93;0.25;;;10.50;99.90;;;;;;5101614;28;20054;-87
2022/08/07 02:53:28;;;;;;;0.00;0.00;;;10.50;99.90;;;;;;5086234;28;21738;-88
2022/08/07 02:55:56;;;;;;;1.30;0.30;;;10.50;99.90;;;;;;5103639;28;20040;-87
2022/08/07 02:58:24;;;;;;;0.38;0.30;;;10.40;99.90;;;;;;5099568;28;20043;-87
2022/08/07 03:00:53;;;;;;;0.15;0.10;;;10.40;99.90;;;;;;5101665;28;20073;-88
2022/08/07 03:03:22;;;;;;;0.13;0.13;;;10.40;99.90;;;;;;5100216;28;20051;-87
2022/08/07 03:05:51;;;;;;;0.75;0.30;;;10.30;99.90;;;;;;5097381;28;20447;-87
2022/08/07 03:08:17;;;;;;;0.13;0.13;;;10.50;99.90;;;;;;5099577;28;20051;-89
2022/08/07 03:10:45;;;;;;;0.10;0.10;;;10.30;99.90;;;;;;5097624;28;20055;-87
2022/08/07 03:13:12;;;;;;;0.10;0.10;;;10.30;99.90;;;;;;5101418;28;20047;-87
2022/08/07 03:15:38;;;;;;;0.13;0.13;;;10.30;99.90;;;;;;5065150;28;20044;-88
2022/08/07 03:18:05;;;;;;;0.77;0.45;;;10.20;99.90;;;;;;5081407;28;20059;-87
2022/08/07 03:20:31;;;;;;;0.40;0.30;;;10.20;99.90;;;;;;5101574;28;20066;-87
2022/08/07 03:22:58;;;;;;;0.75;0.10;;;10.10;99.90;;;;;;5104035;28;20122;-87
2022/08/07 03:25:26;;;;;;;0.20;0.20;;;10.10;99.90;;;;;;5097709;28;20047;-87
2022/08/07 03:27:52;;;;;;;0.20;0.20;;;10.10;99.90;;;;;;5097618;28;20054;-87
2022/08/07 03:30:19;;;;;;;;;;;10.10;99.90;;;;;;5104729;28;20051;-91
2022/08/07 03:32:46;;;;;;;0.10;0.10;;;10.10;99.90;;;;;;5077052;28;19932;-87
2022/08/07 03:35:15;;;;;;;0.15;0.15;;;10.00;99.90;;;;;;5107168;28;20048;-87
2022/08/07 03:37:44;;;;;;;0.55;0.30;;;10.10;99.90;;;;;;5107189;28;20104;-87
2022/08/07 03:40:10;;;;;;;0.20;0.20;;;10.10;99.90;;;;;;5085968;28;20044;-88
2022/08/07 03:42:36;;;;;;;0.10;0.10;;;10.10;99.90;;;;;;5102728;28;20402;-87
2022/08/07 03:45:03;;;;;;;0.85;0.20;;;10.00;99.90;;;;;;5097089;28;20052;-87
2022/08/07 03:47:30;;;;;;;0.20;0.10;;;10.00;99.90;;;;;;5096822;28;20375;-87
2022/08/07 03:49:56;;;;;;;;;;;10.00;99.90;;;;;;5107097;28;20075;-88
2022/08/07 03:52:29;;;;;;;0.50;0.15;;;10.00;99.90;;;;;;5085191;28;19920;-91
2022/08/07 03:54:59;;;;;;;0.08;0.08;;;9.90;99.90;;;;;;5099065;28;20062;-87
2022/08/07 03:57:28;;;;;;;0.20;0.20;;;9.90;99.90;;;;;;5104655;28;20036;-87
2022/08/07 03:59:54;;;;;;;0.10;0.10;;;9.90;99.90;;;;;;5097499;28;20048;-87
2022/08/07 04:02:21;;;;;;;0.20;0.13;;;9.90;99.90;;;;;;5101896;28;20108;-88
2022/08/07 04:04:48;;;;;;;1.05;0.43;;;9.90;99.90;;;;;;5102610;28;20051;-87
2022/08/07 04:07:20;;;;;;;0.20;0.13;;;9.80;99.90;;;;;;5103480;28;20086;-87
2022/08/07 04:09:47;;;;;;;0.00;0.00;;;9.80;99.90;;;;;;5106858;28;20371;-88
2022/08/07 04:12:14;;;;;;;0.25;0.22;;;9.80;99.90;;;;;;5102205;28;20052;-87
2022/08/07 04:14:40;;;;;;;0.28;0.10;;;9.80;99.90;;;;;;5099775;28;20048;-87
2022/08/07 04:17:06;;;;;;;0.25;0.22;;;9.70;99.90;;;;;;5086581;28;20063;-87
2022/08/07 04:19:32;;;;;;;0.22;0.22;;;9.80;99.90;;;;;;5098421;28;20047;-87
2022/08/07 04:21:58;;;;;;;0.83;0.30;;;9.70;99.90;;;;;;5098862;28;20044;-87
2022/08/07 04:24:25;;;;;;;0.00;0.00;;;9.80;99.90;;;;;;5099278;28;20036;-87
2022/08/07 04:26:51;;;;;;;0.20;0.20;;;9.80;99.90;;;;;;5085355;28;20051;-87
2022/08/07 04:29:17;;;;;;;0.33;0.20;;;9.80;99.90;;;;;;5062893;28;20040;-88
2022/08/07 04:31:44;;;;;;;0.40;0.10;;;9.80;99.90;;;;;;5101870;28;20043;-87
2022/08/07 04:34:10;;;;;;;0.80;0.20;;;9.80;99.90;;;;;;5082968;28;20075;-87
2022/08/07 04:36:36;;;;;;;0.20;0.20;;;9.80;99.90;;;;;;5098053;28;20525;-87
2022/08/07 04:39:04;;;;;;;0.00;0.00;;;9.80;99.90;;;;;;5109402;28;20047;-87
2022/08/07 04:41:30;;;;;;;0.63;0.13;;;9.80;99.90;;;;;;5108403;28;20102;-90
2022/08/07 04:43:56;;;;;;;0.10;0.10;;;9.80;99.90;;;;;;5101977;28;20049;-87
2022/08/07 04:46:40;;;;;;;0.20;0.20;;;10.00;99.90;;;;;;5102669;28;20082;-87
2022/08/07 04:49:27;;;;;;;1.65;0.30;;;9.80;99.90;;;;;;5107408;28;20104;-88
2022/08/07 04:52:29;;;;;;;0.50;0.20;;;9.90;99.90;;;;;;5107867;28;20046;-87
2022/08/07 04:55:01;;;;;;;0.15;0.15;;;9.90;99.90;;;;;;5085023;28;20551;-87
2022/08/07 04:57:45;;;;;;;0.08;0.08;;;10.00;99.90;;;;;;5106366;28;20111;-87
2022/08/07 05:00:16;;;;;;;0.55;0.15;;;10.00;99.90;;;;;;5088486;28;21559;-88
2022/08/07 05:03:01;;;;;;;0.10;0.10;;;10.50;99.90;;;;;;5106538;28;20094;-87
2022/08/07 05:05:50;;;;;;;0.40;0.28;;;10.10;99.90;;;;;;5111963;28;20485;-87
2022/08/07 05:08:59;;;;;;;0.50;0.50;;;10.20;99.90;;;;;;5107861;28;20109;-88
2022/08/07 05:11:32;;;;;;;0.90;0.10;;;10.20;99.90;;;;;;5100228;28;20079;-87
2022/08/07 05:14:25;;;;;;;0.15;0.15;;;10.30;99.90;;;;;;5110766;28;20083;-87
2022/08/07 05:16:56;;;;;;;0.10;0.10;;;10.40;99.90;;;;;;5107796;27;20133;-87
2022/08/07 05:19:26;;;;;;;0.10;0.10;;;10.50;99.90;;;;;;5128733;27;20058;-89
2022/08/07 05:21:56;;;;;;;0.60;0.20;;;10.60;99.90;;;;;;5106769;27;20480;-87
2022/08/07 05:24:23;;;;;;;0.00;0.00;;;10.70;99.90;;;;;;5109053;27;20039;-86
2022/08/07 05:26:55;;;;;;;0.00;0.00;;;10.90;99.90;;;;;;5105656;27;20103;-87
2022/08/07 05:29:24;;;;;;;0.10;0.10;;;10.80;99.90;;;;;;5127993;27;20481;-87
2022/08/07 05:31:51;;;;;;;0.20;0.20;;;10.90;99.90;;;;;;5134207;27;20043;-88
2022/08/07 05:34:18;;;;;;;0.20;0.20;;;11.00;99.90;;;;;;5121978;27;20394;-86
2022/08/07 05:36:51;;;;;;;0.43;0.28;;;11.20;99.90;;;;;;5082446;27;20047;-87
2022/08/07 05:39:19;;;;;;;0.45;0.20;;;11.40;99.90;;;;;;5126064;27;20055;-87
2022/08/07 05:41:47;;;;;;;0.20;0.20;;;11.60;99.90;;;;;;5127703;27;20031;-87
2022/08/07 05:44:16;;;;;;;0.35;0.35;;;11.80;99.90;;;;;;5091316;27;20051;-86
2022/08/07 05:46:43;;;;;;;0.05;0.05;;;12.00;99.90;;;;;;5109198;27;20072;-87
2022/08/07 05:49:10;;;;;;;0.55;0.20;;;12.20;99.90;;;;;;5122451;27;20104;-87
2022/08/07 05:51:37;;;;;;;0.47;0.17;;;12.40;99.90;;;;;;5101350;27;20048;-87
2022/08/07 05:54:03;;;;;;;0.57;0.30;;;12.60;99.90;;;;;;5073785;27;20054;-87
2022/08/07 05:56:30;;;;;;;0.22;0.20;;;12.80;99.90;;;;;;5112203;27;20027;-87
2022/08/07 05:58:58;;;;;;;0.08;0.08;;;13.10;99.90;;;;;;5084573;27;20132;-87
2022/08/07 06:01:26;;;;;;;0.22;0.22;;;13.20;99.90;;;;;;5116004;27;20059;-87
2022/08/07 06:03:53;;;;;;;0.00;0.00;;;13.50;99.90;;;;;;5092247;27;20048;-88
2022/08/07 06:06:21;;;;;;;0.15;0.15;;;13.70;99.90;;;;;;5125015;27;20139;-87
2022/08/07 06:08:48;;;;;;;0.55;0.22;;;13.90;99.90;;;;;;5129334;27;20123;-87
2022/08/07 06:11:14;;;;;;;0.22;0.20;;;14.10;99.90;;;;;;5094644;27;20035;-87
2022/08/07 06:13:39;;;;;;;0.10;0.10;;;14.30;99.90;;;;;;5091604;27;20039;-87
2022/08/07 06:16:06;;;;;;;0.30;0.20;;;14.40;99.90;;;;;;5103340;27;20051;-87
2022/08/07 06:18:33;;;;;;;0.35;0.10;;;14.60;99.90;;;;;;5099165;28;20131;-87
2022/08/07 06:21:01;;;;;;;0.28;0.20;;;14.80;99.90;;;;;;5080230;28;20048;-87
2022/08/07 06:23:28;;;;;;;0.20;0.20;;;15.00;99.90;;;;;;5102103;28;20048;-86
2022/08/07 06:25:55;;;;;;;0.22;0.17;;;15.20;99.90;;;;;;5105159;28;20074;-87
2022/08/07 06:28:21;;;;;;;0.30;0.30;;;15.30;99.90;;;;;;5103205;28;20100;-87
2022/08/07 06:30:46;;;;;;;1.40;0.28;;;15.50;99.90;;;;;;5101921;28;20036;-87
2022/08/07 06:33:12;;;;;;;0.28;0.28;;;15.60;99.90;;;;;;5098492;28;20071;-87
2022/08/07 06:35:38;;;;;;;0.17;0.07;;;15.60;99.90;;;;;;5100061;28;20044;-87
2022/08/07 06:38:04;;;;;;;0.13;0.13;;;15.80;99.90;;;;;;5105082;28;20495;-87
2022/08/07 06:40:33;;;;;;;;;;;15.90;99.90;;;;;;5078027;28;20039;-94
2022/08/07 06:43:01;;;;;;;0.28;0.28;;;16.00;99.90;;;;;;5103491;27;19923;-91
2022/08/07 06:45:28;;;;;;;0.22;0.13;;;16.20;99.90;;;;;;5083167;28;20100;-91
2022/08/07 06:47:54;;;;;;;0.10;0.10;;;16.30;99.90;;;;;;5091672;28;20075;-92
2022/08/07 06:50:20;;;;;;;0.98;0.30;;;16.40;99.90;;;;;;5075414;28;20075;-94
2022/08/07 06:52:51;;;;;;;0.98;0.22;;;16.50;99.90;;;;;;5102338;28;20036;-90
2022/08/07 06:55:24;;;;;;;0.10;0.10;;;16.60;99.90;;;;;;5101460;28;20070;-92
2022/08/07 06:57:52;;;;;;;0.13;0.13;;;16.70;99.90;;;;;;5106890;28;20066;-93
2022/08/07 07:00:19;;;;;;;0.10;0.10;;;16.80;99.90;;;;;;5114217;28;20153;-94
2022/08/07 07:02:46;;;;;;;0.15;0.15;;;16.90;99.90;;;;;;5105814;28;20074;-91
2022/08/07 07:05:12;;;;;;;1.58;0.30;;;17.00;99.90;;;;;;5101706;28;20516;-92
2022/08/07 07:07:39;;;;;;;0.10;0.10;;;17.00;99.90;;;;;;5098900;28;20051;-94
2022/08/07 07:10:05;;;;;;;0.17;0.17;;;17.10;99.90;;;;;;5078203;28;20051;-90
2022/08/07 07:12:53;;;;;;;0.35;0.35;;;17.20;99.90;;;;;;5112136;27;20040;-91
2022/08/07 07:15:20;;;;;;;0.00;0.00;;;17.40;99.90;;;;;;5110682;28;20044;-92
2022/08/07 07:17:53;;;;;;;0.35;0.13;;;17.40;99.90;;;;;;5093874;28;20088;-87
2022/08/07 07:20:48;;;;;;;0.13;0.13;;;17.50;99.90;;;;;;5082744;28;20057;-86
2022/08/07 07:23:14;;;;;;;0.70;0.30;;;17.60;99.90;;;;;;5076897;28;20569;-88
2022/08/07 07:25:47;;;;;;;0.73;0.32;;;17.60;99.90;;;;;;5081763;28;20132;-92
2022/08/07 07:28:35;;;;;;;0.10;0.10;;;17.70;99.90;;;;;;5088026;28;20059;-88
2022/08/07 07:31:11;;;;;;;;;;;17.80;99.90;;;;;;5083995;28;20510;-86
2022/08/07 07:33:38;;;;;;;0.03;0.03;;;17.90;99.90;;;;;;5061597;28;19994;-87
2022/08/07 07:36:06;;;;;;;0.20;0.15;;;17.90;99.90;;;;;;5077588;28;20115;-87
2022/08/07 07:38:32;;;;;;;0.20;0.13;;;18.00;99.90;;;;;;5081356;28;20048;-85
2022/08/07 07:41:03;;;;;;;0.03;0.03;;;18.10;99.90;;;;;;5078839;28;20052;-86
2022/08/07 07:43:32;;;;;;;0.10;0.10;;;18.20;99.90;;;;;;5087250;28;20040;-88
2022/08/07 07:46:00;;;;;;;0.70;0.10;;;18.30;99.90;;;;;;5077841;28;20047;-89
2022/08/07 07:48:27;;;;;;;0.50;0.32;;;18.40;99.90;;;;;;5081008;28;20505;-87
2022/08/07 07:50:54;;;;;;;;;;;18.40;99.90;;;;;;5078354;28;20052;-89
2022/08/07 07:53:22;;;;;;;0.52;0.20;;;18.40;99.90;;;;;;5069146;28;19953;-88
2022/08/07 07:55:53;;;;;;;0.00;0.00;;;18.50;99.90;;;;;;5078219;28;20059;-87
2022/08/07 07:58:20;;;;;;;0.10;0.10;;;18.50;99.90;;;;;;5081290;28;20047;-88
2022/08/07 08:00:49;;;;;;;0.20;0.20;;;18.50;99.90;;;;;;5050950;28;20055;-87
2022/08/07 08:03:18;;;;;;;0.13;0.10;;;18.60;99.90;;;;;;5085439;28;20567;-88
2022/08/07 08:05:44;;;;;;;0.00;0.00;;;18.70;99.90;;;;;;5077121;28;20078;-89
2022/08/07 08:08:11;;;;;;;0.00;0.00;;;18.90;99.90;;;;;;5065629;28;20097;-89
2022/08/07 08:10:39;;;;;;;0.28;0.13;;;18.90;99.90;;;;;;5059121;28;20061;-88
2022/08/07 08:13:08;;;;;;;0.10;0.10;;;18.90;99.90;;;;;;5080814;28;20101;-88
2022/08/07 08:15:38;;;;;;;0.10;0.10;;;19.00;99.90;;;;;;5080179;28;20098;-89
2022/08/07 08:18:08;;;;;;;1.17;0.43;;;19.00;99.90;;;;;;5085308;28;20083;-90
2022/08/07 08:20:37;;;;;;;0.17;0.10;;;19.20;99.90;;;;;;5105466;28;20097;-89
2022/08/07 08:28:40;;;;;;;0.20;0.20;;;19.50;99.90;;;;;;5108086;28;20044;-88
2022/08/07 08:31:18;;;;;;;0.10;0.03;;;19.50;99.90;;;;;;5106454;28;20052;-88
2022/08/07 08:33:45;;;;;;;0.00;0.00;;;19.50;99.90;;;;;;5101436;28;20044;-89
2022/08/07 08:36:12;;;;;;;0.00;0.00;;;19.60;99.90;;;;;;5098193;28;20097;-88
2022/08/07 08:38:40;;;;;;;0.10;0.10;;;19.70;99.90;;;;;;5081271;28;20049;-92
2022/08/07 08:41:24;;;;;;;0.10;0.03;;;19.70;99.90;;;;;;5095162;28;20478;-91
2022/08/07 08:44:13;;;;;;;0.20;0.10;;;19.80;99.90;;;;;;5096733;28;20058;-90
2022/08/07 08:46:51;;;;;;;0.45;0.17;;;19.90;99.90;;;;;;5089724;28;20078;-91
2022/08/07 08:49:23;;;;;;;0.10;0.10;;;20.10;99.90;;;;;;5101642;28;20169;-90
2022/08/07 08:52:09;;;;;;;0.32;0.30;;;20.20;99.90;;;;;;5099647;28;20047;-91
2022/08/07 08:54:40;;;;;;;0.20;0.10;;;20.30;99.90;;;;;;5101367;28;20040;-94
2022/08/07 08:57:20;;;;;;;0.38;0.38;;;20.30;99.90;;;;;;5081488;28;20048;-92
2022/08/07 08:59:52;;;;;;;0.08;0.00;;;20.40;99.90;;;;;;5094414;28;20063;-91
2022/08/07 09:02:36;;;;;;;0.17;0.10;;;20.30;99.90;;;;;;5081128;28;20036;-91
2022/08/07 09:05:26;;;;;;;0.10;0.10;;;20.20;99.90;;;;;;5088457;28;20090;-92
2022/08/07 09:07:58;;;;;;;0.10;0.10;;;20.10;99.90;;;;;;5105740;28;20135;-92
2022/08/07 09:10:55;;;;;;;0.00;0.00;;;20.00;99.90;;;;;;5079442;28;20094;-90
2022/08/07 09:13:45;;;;;;;0.47;0.17;;;20.00;99.90;;;;;;5101479;28;20040;-87
2022/08/07 09:16:35;;;;;;;0.00;0.00;;;19.80;99.90;;;;;;5094996;28;20052;-87
2022/08/07 09:19:20;;;;;;;0.00;0.00;;;19.50;99.90;;;;;;5100838;28;20502;-86
2022/08/07 09:21:49;;;;;;;0.03;0.03;;;19.40;99.90;;;;;;5111933;28;20125;-86
2022/08/07 09:24:29;;;;;;;0.08;0.08;;;19.50;99.90;;;;;;5093011;28;20040;-87
2022/08/07 09:27:15;;;;;;;0.43;0.10;;;19.70;99.90;;;;;;5105766;28;20043;-89
2022/08/07 09:29:55;;;;;;;0.50;0.10;;;19.90;99.90;;;;;;5084888;28;20118;-89
2022/08/07 09:32:48;;;;;;;0.10;0.10;;;19.80;99.90;;;;;;5104736;28;20047;-90
2022/08/07 09:35:52;;;;;;;0.03;0.03;;;19.80;99.90;;;;;;5079604;28;20036;-90
2022/08/07 09:38:42;;;;;;;0.45;0.10;;;19.80;99.90;;;;;;5108810;28;20036;-89
2022/08/07 09:41:14;;;;;;;0.10;0.10;;;20.10;99.90;;;;;;5084738;28;20214;-90
2022/08/07 09:43:49;;;;;;;0.08;0.08;;;20.20;99.90;;;;;;5081618;28;20048;-87
2022/08/07 09:46:55;;;;;;;0.43;0.05;;;20.20;99.90;;;;;;5089206;28;20075;-88
2022/08/07 09:49:45;;;;;;;0.00;0.00;;;20.10;99.90;;;;;;5092780;28;20513;-88
2022/08/07 09:52:26;;;;;;;0.10;0.10;;;20.00;99.90;;;;;;5108458;28;20070;-88
2022/08/07 09:54:57;;;;;;;0.00;0.00;;;20.10;99.90;;;;;;5107448;28;20493;-89
2022/08/07 09:57:46;;;;;;;0.25;0.10;;;20.20;99.90;;;;;;5106358;28;20039;-88
2022/08/07 10:00:15;;;;;;;0.30;0.30;;;20.20;99.90;;;;;;5080033;28;20192;-88
2022/08/07 10:03:35;;;;;;;0.28;0.10;;;20.40;99.90;;;;;;5089733;28;20055;-89
2022/08/07 10:06:16;;;;;;;0.20;0.20;;;20.40;99.90;;;;;;5049349;28;20060;-89
2022/08/07 10:08:55;;;;;;;0.03;0.03;;;20.30;99.90;;;;;;5107625;28;20043;-89
2022/08/07 10:11:42;;;;;;;0.00;0.00;;;20.20;99.90;;;;;;5084441;28;20485;-90
2022/08/07 10:14:19;;;;;;;;;;;20.50;99.90;;;;;;5083228;28;20040;-89
2022/08/07 10:16:51;;;;;;;0.03;0.03;;;20.60;99.90;;;;;;5090509;28;19963;-90
2022/08/07 10:19:52;;;;;;;0.03;0.03;;;20.70;99.90;;;;;;5118252;27;20104;-90
2022/08/07 10:22:49;;;;;;;0.00;0.00;;;20.70;99.90;;;;;;5105188;27;20529;-90
2022/08/07 10:25:51;;;;;;;0.03;0.03;;;20.80;99.90;;;;;;5093150;27;20047;-88
2022/08/07 10:28:28;;;;;;;0.00;0.00;;;20.80;99.90;;;;;;5097926;28;20204;-86
2022/08/07 10:31:09;;;;;;;0.10;0.10;;;20.90;99.90;;;;;;5095369;27;20485;-87
2022/08/07 10:33:49;;;;;;;0.00;0.00;;;20.90;99.90;;;;;;5099445;27;20092;-87
2022/08/07 10:36:33;;;;;;;0.00;0.00;;;21.00;99.90;;;;;;5099807;27;20469;-87
2022/08/07 10:39:14;;;;;;;0.05;0.05;;;21.00;99.90;;;;;;5112262;27;20562;-86
2022/08/07 10:41:50;;;;;;;0.22;0.22;;;21.10;99.90;;;;;;5105825;27;20134;-88
2022/08/07 10:44:25;;;;;;;0.00;0.00;;;21.20;99.90;;;;;;5100346;27;20043;-87
2022/08/07 10:47:04;;;;;;;0.00;0.00;;;21.30;99.90;;;;;;5095921;27;20047;-88
2022/08/07 10:49:51;;;;;;;0.00;0.00;;;21.30;99.90;;;;;;5100024;27;20506;-87
2022/08/07 10:52:31;;;;;;;0.75;0.10;;;21.50;99.90;;;;;;5110595;27;20396;-89
2022/08/07 10:55:16;;;;;;;0.00;0.00;;;21.60;99.80;;;;;;5090842;27;20142;-88
2022/08/07 10:57:57;;;;;;;0.00;0.00;;;21.60;99.90;;;;;;5100587;27;20572;-87
2022/08/07 11:00:30;;;;;;;0.10;0.10;;;21.70;99.90;;;;;;5088063;27;20070;-96
2022/08/07 11:03:40;;;;;;;0.03;0.03;;;21.70;99.30;;;;;;5088374;27;20063;-88
2022/08/07 11:06:30;;;;;;;0.00;0.00;;;21.60;99.20;;;;;;5096438;27;20122;-88
2022/08/07 11:09:06;;;;;;;0.00;0.00;;;21.60;99.40;;;;;;5104367;27;20131;-89
2022/08/07 11:11:42;;;;;;;0.08;0.00;;;21.60;99.90;;;;;;5099139;27;20043;-89
2022/08/07 11:14:25;;;;;;;0.10;0.10;;;21.90;99.90;;;;;;5085771;27;20047;-88
2022/08/07 11:16:51;;;;;;;0.00;0.00;;;22.00;98.70;;;;;;5101209;27;20047;-87
2022/08/07 11:19:34;;;;;;;0.00;0.00;;;22.10;99.60;;;;;;5105706;27;20043;-90
2022/08/07 11:22:23;;;;;;;0.00;0.00;;;22.20;97.50;;;;;;5106526;27;20115;-89
2022/08/07 11:25:05;;;;;;;0.00;0.00;;;22.20;98.40;;;;;;5084379;28;20051;-89
2022/08/07 11:27:55;;;;;;;0.00;0.00;;;22.30;98.80;;;;;;5088725;27;20492;-89
2022/08/07 11:30:27;;;;;;;0.03;0.03;;;22.40;98.90;;;;;;5097360;28;20044;-89
2022/08/07 11:33:10;;;;;;;0.00;0.00;;;22.40;98.60;;;;;;5109510;27;20061;-90
2022/08/07 11:35:49;;;;;;;0.00;0.00;;;22.50;96.20;;;;;;5124429;27;20046;-89
2022/08/07 11:38:31;;;;;;;0.00;0.00;;;22.40;96.70;;;;;;5102986;27;20043;-88
2022/08/07 11:41:04;;;;;;;0.00;0.00;;;22.50;97.30;;;;;;5109677;27;20046;-89
2022/08/07 11:43:37;;;;;;;0.00;0.00;;;22.60;98.40;;;;;;5111268;27;20053;-91
2022/08/07 11:46:33;;;;;;;0.10;0.10;;;22.70;97.80;;;;;;5107211;27;20477;-89
2022/08/07 11:49:15;;;;;;;0.05;0.05;;;22.80;97.00;;;;;;5079725;27;20047;-88
2022/08/07 11:52:05;;;;;;;0.00;0.00;;;22.90;97.10;;;;;;5116998;27;20503;-89
2022/08/07 11:54:52;;;;;;;0.10;0.00;;;22.90;94.30;;;;;;5098147;28;20058;-91
2022/08/07 11:57:32;;;;;;;0.43;0.10;;;22.90;94.40;;;;;;5112489;27;21724;-87
2022/08/07 12:00:04;;;;;;;0.00;0.00;;;22.90;95.10;;;;;;5094279;27;20122;-86
2022/08/07 12:03:03;;;;;;;0.00;0.00;;;22.90;95.60;;;;;;5116028;27;20244;-89
2022/08/07 12:06:13;;;;;;;0.00;0.00;;;23.00;95.10;;;;;;5109482;27;20039;-89
2022/08/07 12:08:54;;;;;;;0.00;0.00;;;23.10;92.10;;;;;;5030504;28;20061;-89
2022/08/07 12:12:06;;;;;;;2.85;0.28;;;23.10;93.20;;;;;;5088506;28;20116;-88
2022/08/07 12:14:58;;;;;;;0.10;0.10;;;23.10;93.80;;;;;;5024140;28;20159;-90
2022/08/07 12:17:48;;;;;;;0.00;0.00;;;23.10;93.70;;;;;;5043640;28;20140;-89
2022/08/07 12:20:25;;;;;;;0.20;0.20;;;23.00;91.50;;;;;;5090450;28;20057;-85
2022/08/07 12:23:16;;;;;;;0.00;0.00;;;22.90;93.50;;;;;;5105574;28;20118;-87
2022/08/07 12:25:59;;;;;;;0.10;0.10;;;22.90;93.30;;;;;;5110047;28;20076;-86
2022/08/07 12:28:28;;;;;;;0.00;0.00;;;23.10;93.30;;;;;;5130373;28;20045;-87
2022/08/07 12:30:58;;;;;;;0.00;0.00;;;23.20;91.80;;;;;;5112625;28;20039;-86
2022/08/07 12:33:28;;;;;;;0.00;0.00;;;23.30;93.70;;;;;;5109332;28;20093;-85
2022/08/07 12:35:56;;;;;;;0.05;0.05;;;23.40;93.70;;;;;;5098892;28;20046;-85
2022/08/07 12:38:23;;;;;;;0.00;0.00;;;23.50;93.40;;;;;;5098905;28;20047;-85
2022/08/07 12:40:50;;;;;;;0.00;0.00;;;23.50;93.20;;;;;;5104267;28;20149;-85
2022/08/07 12:43:20;;;;;;;0.10;0.10;;;23.50;93.80;;;;;;5113108;28;20557;-84
2022/08/07 12:46:05;;;;;;;0.00;0.00;;;23.50;93.20;;;;;;5105475;28;20424;-84
2022/08/07 12:48:54;;;;;;;0.00;0.00;;;23.60;93.50;;;;;;5114758;28;20047;-84
2022/08/07 12:51:25;;;;;;;0.00;0.00;;;23.80;90.90;;;;;;5114592;28;20243;-84
2022/08/07 12:54:19;;;;;;;0.13;0.10;;;23.80;92.30;;;;;;5116465;27;20401;-85
2022/08/07 12:56:50;;;;;;;0.00;0.00;;;23.90;90.20;;;;;;5102900;27;20058;-85
2022/08/07 12:59:20;;;;;;;0.20;0.20;;;23.90;91.40;;;;;;5101160;28;20054;-84
2022/08/07 13:02:07;;;;;;;0.05;0.05;;;24.00;90.00;;;;;;5099374;27;20031;-85
2022/08/07 13:04:50;;;;;;;0.10;0.10;;;24.00;90.40;;;;;;5119632;27;20047;-84
2022/08/07 13:07:36;;;;;;;0.10;0.10;;;24.10;90.40;;;;;;5100130;28;20378;-84
2022/08/07 13:10:15;;;;;;;0.00;0.00;;;24.10;89.60;;;;;;5099224;28;20040;-84
2022/08/07 13:12:49;;;;;;;0.10;0.10;;;24.20;90.40;;;;;;5082115;28;20083;-86
2022/08/07 13:15:41;;;;;;;0.20;0.05;;;24.30;90.50;;;;;;5082624;28;20043;-84
2022/08/07 13:18:30;;;;;;;0.10;0.10;;;24.40;90.70;;;;;;5096276;27;20039;-85
2022/08/07 13:21:00;;;;;;;0.20;0.20;;;24.50;88.80;;;;;;5102149;27;20051;-85
2022/08/07 13:23:37;;;;;;;0.10;0.10;;;24.60;90.40;;;;;;5119575;27;20050;-85
2022/08/07 13:26:12;;;;;;;0.00;0.00;;;24.70;88.60;;;;;;5105114;28;20040;-85
2022/08/07 13:28:48;;;;;;;0.45;0.10;;;24.70;90.00;;;;;;5099161;28;20066;-84